sensor_id;sensor_type;location;lat;lon;timestamp;pressure;altitude;pressure_sealevel;temperature;humidity
33625;BME280;19962;47.820;1.930;2023-07-08T00:01:18;100174.69;;;26.17;55.48
33625;BME280;19962;47.820;1.930;2023-07-08T00:03:44;100201.63;;;26.18;55.37
33625;BME280;19962;47.820;1.930;2023-07-08T00:06:17;100193.69;;;26.20;55.18
33625;BME280;19962;47.820;1.930;2023-07-08T00:08:44;100193.13;;;26.26;55.03
33625;BME280;19962;47.820;1.930;2023-07-08T00:11:11;100210.16;;;26.30;54.98
33625;BME280;19962;47.820;1.930;2023-07-08T00:13:37;100221.75;;;26.28;54.75
33625;BME280;19962;47.820;1.930;2023-07-08T00:16:03;100245.53;;;26.31;54.94
33625;BME280;19962;47.820;1.930;2023-07-08T00:18:30;100262.88;;;26.33;54.93
33625;BME280;19962;47.820;1.930;2023-07-08T00:20:56;100296.16;;;26.31;55.78
33625;BME280;19962;47.820;1.930;2023-07-08T00:23:22;100314.41;;;26.25;56.94
33625;BME280;19962;47.820;1.930;2023-07-08T00:25:48;100345.09;;;26.09;58.83
33625;BME280;19962;47.820;1.930;2023-07-08T00:28:17;100363.03;;;25.79;61.62
33625;BME280;19962;47.820;1.930;2023-07-08T00:30:44;100388.03;;;25.64;62.88
33625;BME280;19962;47.820;1.930;2023-07-08T00:33:10;100402.75;;;25.52;63.81
33625;BME280;19962;47.820;1.930;2023-07-08T00:35:41;100446.84;;;25.52;64.50
33625;BME280;19962;47.820;1.930;2023-07-08T00:38:21;100457.28;;;25.51;64.74
33625;BME280;19962;47.820;1.930;2023-07-08T00:43:50;100445.06;;;25.47;67.16
33625;BME280;19962;47.820;1.930;2023-07-08T00:49:25;100447.84;;;25.39;68.64
33625;BME280;19962;47.820;1.930;2023-07-08T00:51:52;100441.25;;;25.35;68.08
33625;BME280;19962;47.820;1.930;2023-07-08T00:54:19;100430.69;;;25.32;68.90
33625;BME280;19962;47.820;1.930;2023-07-08T00:56:54;100435.13;;;25.24;69.53
33625;BME280;19962;47.820;1.930;2023-07-08T00:59:28;100426.34;;;25.26;69.40
33625;BME280;19962;47.820;1.930;2023-07-08T01:01:56;100426.03;;;25.27;69.58
33625;BME280;19962;47.820;1.930;2023-07-08T01:04:58;100416.81;;;25.27;69.37
33625;BME280;19962;47.820;1.930;2023-07-08T01:07:28;100413.47;;;25.25;69.83
33625;BME280;19962;47.820;1.930;2023-07-08T01:10:01;100423.88;;;25.24;70.05
33625;BME280;19962;47.820;1.930;2023-07-08T01:12:31;100420.09;;;25.29;70.05
33625;BME280;19962;47.820;1.930;2023-07-08T01:15:00;100432.19;;;25.29;70.48
33625;BME280;19962;47.820;1.930;2023-07-08T01:17:29;100430.50;;;25.28;70.65
33625;BME280;19962;47.820;1.930;2023-07-08T01:20:00;100420.72;;;25.26;70.93
33625;BME280;19962;47.820;1.930;2023-07-08T01:22:30;100431.00;;;25.22;71.20
33625;BME280;19962;47.820;1.930;2023-07-08T01:24:59;100433.13;;;25.16;71.65
33625;BME280;19962;47.820;1.930;2023-07-08T01:27:31;100435.63;;;25.18;71.75
33625;BME280;19962;47.820;1.930;2023-07-08T01:29:59;100441.88;;;25.15;72.14
33625;BME280;19962;47.820;1.930;2023-07-08T01:32:26;100440.22;;;25.14;71.88
33625;BME280;19962;47.820;1.930;2023-07-08T01:34:55;100453.44;;;25.05;72.95
33625;BME280;19962;47.820;1.930;2023-07-08T01:37:39;100442.84;;;25.02;74.01
33625;BME280;19962;47.820;1.930;2023-07-08T01:40:31;100430.63;;;24.98;75.47
33625;BME280;19962;47.820;1.930;2023-07-08T01:42:59;100414.72;;;24.68;75.74
33625;BME280;19962;47.820;1.930;2023-07-08T01:45:28;100407.75;;;24.57;76.75
33625;BME280;19962;47.820;1.930;2023-07-08T01:48:14;100408.13;;;24.72;77.02
33625;BME280;19962;47.820;1.930;2023-07-08T01:51:01;100410.63;;;24.74;77.06
33625;BME280;19962;47.820;1.930;2023-07-08T01:53:39;100394.44;;;24.79;76.44
33625;BME280;19962;47.820;1.930;2023-07-08T01:56:09;100389.00;;;24.83;76.80
33625;BME280;19962;47.820;1.930;2023-07-08T01:58:36;100390.19;;;24.82;77.07
33625;BME280;19962;47.820;1.930;2023-07-08T02:01:02;100391.31;;;24.81;77.13
33625;BME280;19962;47.820;1.930;2023-07-08T02:03:29;100389.00;;;24.83;77.03
33625;BME280;19962;47.820;1.930;2023-07-08T02:05:55;100372.66;;;24.85;76.90
33625;BME280;19962;47.820;1.930;2023-07-08T02:08:22;100354.50;;;24.82;77.07
33625;BME280;19962;47.820;1.930;2023-07-08T02:10:54;100331.88;;;24.87;75.73
33625;BME280;19962;47.820;1.930;2023-07-08T02:13:22;100322.97;;;24.94;75.70
33625;BME280;19962;47.820;1.930;2023-07-08T02:15:49;100339.81;;;24.94;76.02
33625;BME280;19962;47.820;1.930;2023-07-08T02:18:16;100344.25;;;24.95;76.05
33625;BME280;19962;47.820;1.930;2023-07-08T02:20:45;100333.72;;;24.92;76.25
33625;BME280;19962;47.820;1.930;2023-07-08T02:23:11;100320.19;;;24.85;76.26
33625;BME280;19962;47.820;1.930;2023-07-08T02:25:37;100300.03;;;24.83;76.77
33625;BME280;19962;47.820;1.930;2023-07-08T02:28:04;100298.53;;;24.86;76.38
33625;BME280;19962;47.820;1.930;2023-07-08T02:30:30;100277.56;;;24.83;76.60
33625;BME280;19962;47.820;1.930;2023-07-08T02:32:56;100257.94;;;24.83;76.71
33625;BME280;19962;47.820;1.930;2023-07-08T02:35:25;100258.78;;;24.84;76.51
33625;BME280;19962;47.820;1.930;2023-07-08T02:37:52;100253.50;;;24.82;76.89
33625;BME280;19962;47.820;1.930;2023-07-08T02:40:19;100250.53;;;24.79;77.06
33625;BME280;19962;47.820;1.930;2023-07-08T02:42:45;100237.34;;;24.62;77.81
33625;BME280;19962;47.820;1.930;2023-07-08T02:45:13;100237.34;;;24.62;77.69
33625;BME280;19962;47.820;1.930;2023-07-08T02:47:39;100245.59;;;24.67;77.23
33625;BME280;19962;47.820;1.930;2023-07-08T02:50:07;100244.91;;;24.70;77.05
33625;BME280;19962;47.820;1.930;2023-07-08T02:52:34;100210.44;;;24.70;77.02
33625;BME280;19962;47.820;1.930;2023-07-08T02:55:01;100215.91;;;24.66;76.92
33625;BME280;19962;47.820;1.930;2023-07-08T02:57:27;100195.91;;;24.51;77.85
33625;BME280;19962;47.820;1.930;2023-07-08T02:59:53;100178.41;;;24.53;77.50
33625;BME280;19962;47.820;1.930;2023-07-08T03:02:20;100164.03;;;24.55;77.17
33625;BME280;19962;47.820;1.930;2023-07-08T03:04:47;100166.38;;;24.53;77.13
33625;BME280;19962;47.820;1.930;2023-07-08T03:07:14;100157.28;;;24.39;78.22
33625;BME280;19962;47.820;1.930;2023-07-08T03:09:41;100148.06;;;24.38;78.37
33625;BME280;19962;47.820;1.930;2023-07-08T03:12:08;100144.44;;;24.47;77.76
33625;BME280;19962;47.820;1.930;2023-07-08T03:14:35;100135.84;;;24.52;77.62
33625;BME280;19962;47.820;1.930;2023-07-08T03:17:02;100137.50;;;24.52;77.36
33625;BME280;19962;47.820;1.930;2023-07-08T03:19:28;100135.84;;;24.52;77.32
33625;BME280;19962;47.820;1.930;2023-07-08T03:21:55;100142.63;;;24.51;77.24
33625;BME280;19962;47.820;1.930;2023-07-08T03:24:21;100142.44;;;24.47;77.33
33625;BME280;19962;47.820;1.930;2023-07-08T03:26:47;100137.03;;;24.33;78.18
33625;BME280;19962;47.820;1.930;2023-07-08T03:29:15;100149.88;;;24.34;78.15
33625;BME280;19962;47.820;1.930;2023-07-08T03:31:42;100149.41;;;24.33;78.17
33625;BME280;19962;47.820;1.930;2023-07-08T03:34:11;100167.19;;;24.28;78.30
33625;BME280;19962;47.820;1.930;2023-07-08T03:36:46;100172.31;;;24.26;77.96
33625;BME280;19962;47.820;1.930;2023-07-08T03:39:15;100176.59;;;24.32;77.92
33625;BME280;19962;47.820;1.930;2023-07-08T03:41:42;100181.56;;;24.35;77.56
33625;BME280;19962;47.820;1.930;2023-07-08T03:44:08;100177.06;;;24.34;77.66
33625;BME280;19962;47.820;1.930;2023-07-08T03:46:34;100178.25;;;24.33;77.65
33625;BME280;19962;47.820;1.930;2023-07-08T03:49:00;100177.44;;;24.33;77.45
33625;BME280;19962;47.820;1.930;2023-07-08T03:51:34;100176.25;;;24.25;77.71
33625;BME280;19962;47.820;1.930;2023-07-08T03:54:02;100183.50;;;24.17;78.35
33625;BME280;19962;47.820;1.930;2023-07-08T03:56:28;100180.03;;;24.12;78.38
33625;BME280;19962;47.820;1.930;2023-07-08T03:58:55;100183.50;;;24.17;78.14
33625;BME280;19962;47.820;1.930;2023-07-08T04:01:23;100183.34;;;24.22;77.73
33625;BME280;19962;47.820;1.930;2023-07-08T04:03:55;100191.28;;;24.20;77.60
33625;BME280;19962;47.820;1.930;2023-07-08T04:06:22;100188.94;;;24.22;77.79
33625;BME280;19962;47.820;1.930;2023-07-08T04:08:49;100196.88;;;24.20;77.56
33625;BME280;19962;47.820;1.930;2023-07-08T04:11:18;100186.81;;;24.19;77.77
33625;BME280;19962;47.820;1.930;2023-07-08T04:13:45;100190.44;;;24.20;77.84
33625;BME280;19962;47.820;1.930;2023-07-08T04:16:33;100193.25;;;24.11;78.11
33625;BME280;19962;47.820;1.930;2023-07-08T04:19:02;100187.28;;;24.04;78.52
33625;BME280;19962;47.820;1.930;2023-07-08T04:21:28;100178.41;;;24.02;78.67
33625;BME280;19962;47.820;1.930;2023-07-08T04:23:56;100182.34;;;24.01;78.69
33625;BME280;19962;47.820;1.930;2023-07-08T04:26:22;100193.09;;;24.08;78.43
33625;BME280;19962;47.820;1.930;2023-07-08T04:28:48;100187.47;;;24.08;78.64
33625;BME280;19962;47.820;1.930;2023-07-08T04:31:14;100183.84;;;24.16;77.86
33625;BME280;19962;47.820;1.930;2023-07-08T04:33:40;100181.88;;;24.16;77.94
33625;BME280;19962;47.820;1.930;2023-07-08T04:36:12;100176.25;;;24.16;77.37
33625;BME280;19962;47.820;1.930;2023-07-08T04:38:39;100169.50;;;24.17;77.85
33625;BME280;19962;47.820;1.930;2023-07-08T04:41:07;100175.09;;;24.17;77.68
33625;BME280;19962;47.820;1.930;2023-07-08T04:43:33;100176.25;;;24.16;77.68
33625;BME280;19962;47.820;1.930;2023-07-08T04:45:59;100178.41;;;24.11;77.93
33625;BME280;19962;47.820;1.930;2023-07-08T04:48:25;100178.41;;;24.02;78.43
33625;BME280;19962;47.820;1.930;2023-07-08T04:50:52;100184.66;;;23.99;78.70
33625;BME280;19962;47.820;1.930;2023-07-08T04:53:19;100189.09;;;24.00;78.74
33625;BME280;19962;47.820;1.930;2023-07-08T04:55:51;100189.59;;;24.02;78.48
33625;BME280;19962;47.820;1.930;2023-07-08T04:58:18;100200.13;;;23.97;78.80
33625;BME280;19962;47.820;1.930;2023-07-08T05:00:45;100208.81;;;23.87;79.58
33625;BME280;19962;47.820;1.930;2023-07-08T05:03:11;100232.56;;;23.89;79.76
33625;BME280;19962;47.820;1.930;2023-07-08T05:05:37;100227.28;;;23.88;80.05
33625;BME280;19962;47.820;1.930;2023-07-08T05:08:03;100235.25;;;23.94;79.57
33625;BME280;19962;47.820;1.930;2023-07-08T05:10:29;100234.09;;;23.95;79.33
33625;BME280;19962;47.820;1.930;2023-07-08T05:12:55;100238.41;;;24.01;79.29
33625;BME280;19962;47.820;1.930;2023-07-08T05:15:22;100259.16;;;24.00;79.35
33625;BME280;19962;47.820;1.930;2023-07-08T05:17:49;100265.59;;;24.01;79.36
33625;BME280;19962;47.820;1.930;2023-07-08T05:20:16;100263.47;;;24.06;79.07
33625;BME280;19962;47.820;1.930;2023-07-08T05:22:44;100264.94;;;24.04;79.26
33625;BME280;19962;47.820;1.930;2023-07-08T05:25:11;100277.97;;;24.08;79.07
33625;BME280;19962;47.820;1.930;2023-07-08T05:27:37;100289.97;;;24.00;79.38
33625;BME280;19962;47.820;1.930;2023-07-08T05:30:05;100293.44;;;23.97;79.80
33625;BME280;19962;47.820;1.930;2023-07-08T05:32:31;100290.34;;;24.07;79.08
33625;BME280;19962;47.820;1.930;2023-07-08T05:34:58;100302.72;;;24.06;79.05
33625;BME280;19962;47.820;1.930;2023-07-08T05:37:24;100312.75;;;23.99;79.94
33625;BME280;19962;47.820;1.930;2023-07-08T05:39:54;100305.66;;;24.01;79.76
33625;BME280;19962;47.820;1.930;2023-07-08T05:42:21;100300.91;;;24.10;79.36
33625;BME280;19962;47.820;1.930;2023-07-08T05:44:48;100308.00;;;24.16;79.23
33625;BME280;19962;47.820;1.930;2023-07-08T05:47:15;100307.00;;;24.12;79.52
33625;BME280;19962;47.820;1.930;2023-07-08T05:49:41;100307.84;;;24.13;79.27
33625;BME280;19962;47.820;1.930;2023-07-08T05:52:08;100306.34;;;24.15;79.28
33625;BME280;19962;47.820;1.930;2023-07-08T05:54:38;100313.44;;;24.21;79.22
33625;BME280;19962;47.820;1.930;2023-07-08T05:57:08;100323.50;;;24.22;79.54
33625;BME280;19962;47.820;1.930;2023-07-08T05:59:35;100326.16;;;24.27;79.60
33625;BME280;19962;47.820;1.930;2023-07-08T06:02:02;100326.84;;;24.24;80.53
33625;BME280;19962;47.820;1.930;2023-07-08T06:04:29;100329.97;;;24.23;80.72
33625;BME280;19962;47.820;1.930;2023-07-08T06:06:56;100324.19;;;24.28;80.69
33625;BME280;19962;47.820;1.930;2023-07-08T06:09:23;100323.88;;;24.29;80.86
33625;BME280;19962;47.820;1.930;2023-07-08T06:11:49;100329.66;;;24.33;80.57
33625;BME280;19962;47.820;1.930;2023-07-08T06:14:15;100327.69;;;24.33;81.06
33625;BME280;19962;47.820;1.930;2023-07-08T06:16:42;100333.78;;;24.35;80.95
33625;BME280;19962;47.820;1.930;2023-07-08T06:19:08;100335.41;;;24.36;81.09
33625;BME280;19962;47.820;1.930;2023-07-08T06:21:34;100325.88;;;24.38;80.99
33625;BME280;19962;47.820;1.930;2023-07-08T06:24:00;100335.41;;;24.36;81.20
33625;BME280;19962;47.820;1.930;2023-07-08T06:26:27;100332.13;;;24.34;81.27
33625;BME280;19962;47.820;1.930;2023-07-08T06:28:53;100339.22;;;24.32;81.75
33625;BME280;19962;47.820;1.930;2023-07-08T06:31:19;100353.72;;;24.34;81.42
33625;BME280;19962;47.820;1.930;2023-07-08T06:33:45;100359.00;;;24.35;81.94
33625;BME280;19962;47.820;1.930;2023-07-08T06:36:11;100355.72;;;24.33;82.46
33625;BME280;19962;47.820;1.930;2023-07-08T06:38:38;100363.44;;;24.36;82.70
33625;BME280;19962;47.820;1.930;2023-07-08T06:41:04;100352.25;;;24.36;82.69
33625;BME280;19962;47.820;1.930;2023-07-08T06:43:30;100356.56;;;24.42;82.75
33625;BME280;19962;47.820;1.930;2023-07-08T06:45:56;100360.53;;;24.42;82.89
33625;BME280;19962;47.820;1.930;2023-07-08T06:48:22;100364.13;;;24.42;83.19
33625;BME280;19962;47.820;1.930;2023-07-08T06:50:50;100371.22;;;24.39;83.38
33625;BME280;19962;47.820;1.930;2023-07-08T06:53:16;100369.44;;;24.43;83.21
33625;BME280;19962;47.820;1.930;2023-07-08T06:55:44;100377.81;;;24.35;83.73
33625;BME280;19962;47.820;1.930;2023-07-08T06:58:11;100379.31;;;24.33;84.01
33625;BME280;19962;47.820;1.930;2023-07-08T07:00:41;100394.81;;;24.38;83.92
33625;BME280;19962;47.820;1.930;2023-07-08T07:03:07;100394.19;;;24.42;83.47
33625;BME280;19962;47.820;1.930;2023-07-08T07:05:33;100396.81;;;24.47;84.21
33625;BME280;19962;47.820;1.930;2023-07-08T07:07:59;100391.38;;;24.50;83.73
33625;BME280;19962;47.820;1.930;2023-07-08T07:10:25;100398.63;;;24.51;83.68
33625;BME280;19962;47.820;1.930;2023-07-08T07:12:51;100388.25;;;24.52;83.32
33625;BME280;19962;47.820;1.930;2023-07-08T07:15:17;100402.13;;;24.57;83.44
33625;BME280;19962;47.820;1.930;2023-07-08T07:17:43;100402.13;;;24.57;83.54
33625;BME280;19962;47.820;1.930;2023-07-08T07:20:11;100405.41;;;24.58;83.31
33625;BME280;19962;47.820;1.930;2023-07-08T07:22:37;100412.75;;;24.60;83.58
33625;BME280;19962;47.820;1.930;2023-07-08T07:25:04;100420.00;;;24.61;83.26
33625;BME280;19962;47.820;1.930;2023-07-08T07:27:30;100418.69;;;24.67;82.99
33625;BME280;19962;47.820;1.930;2023-07-08T07:29:57;100420.53;;;24.71;83.42
33625;BME280;19962;47.820;1.930;2023-07-08T07:32:25;100431.41;;;24.73;83.57
33625;BME280;19962;47.820;1.930;2023-07-08T07:34:52;100434.22;;;24.73;83.14
33625;BME280;19962;47.820;1.930;2023-07-08T07:37:20;100438.00;;;24.77;82.57
33625;BME280;19962;47.820;1.930;2023-07-08T07:39:47;100439.53;;;24.83;82.22
33625;BME280;19962;47.820;1.930;2023-07-08T07:42:15;100442.00;;;24.84;82.04
33625;BME280;19962;47.820;1.930;2023-07-08T07:44:41;100458.69;;;24.89;81.94
33625;BME280;19962;47.820;1.930;2023-07-08T07:47:08;100462.97;;;24.95;81.62
33625;BME280;19962;47.820;1.930;2023-07-08T07:49:35;100468.75;;;24.99;81.38
33625;BME280;19962;47.820;1.930;2023-07-08T07:52:01;100470.56;;;24.95;81.99
33625;BME280;19962;47.820;1.930;2023-07-08T07:54:27;100473.88;;;24.97;82.35
33625;BME280;19962;47.820;1.930;2023-07-08T07:56:53;100467.09;;;24.98;82.04
33625;BME280;19962;47.820;1.930;2023-07-08T07:59:20;100464.66;;;25.05;81.91
33625;BME280;19962;47.820;1.930;2023-07-08T08:01:46;100462.34;;;25.07;82.24
33625;BME280;19962;47.820;1.930;2023-07-08T08:04:12;100468.47;;;25.09;81.92
33625;BME280;19962;47.820;1.930;2023-07-08T08:06:38;100478.53;;;25.10;81.69
33625;BME280;19962;47.820;1.930;2023-07-08T08:09:06;100466.63;;;25.13;81.62
33625;BME280;19962;47.820;1.930;2023-07-08T08:11:32;100465.19;;;25.15;81.02
33625;BME280;19962;47.820;1.930;2023-07-08T08:14:00;100459.72;;;25.19;80.42
33625;BME280;19962;47.820;1.930;2023-07-08T08:16:27;100460.72;;;25.23;80.60
33625;BME280;19962;47.820;1.930;2023-07-08T08:18:53;100468.94;;;25.19;80.45
33625;BME280;19962;47.820;1.930;2023-07-08T08:21:19;100464.00;;;25.25;79.99
33625;BME280;19962;47.820;1.930;2023-07-08T08:23:45;100465.66;;;25.26;79.72
33625;BME280;19962;47.820;1.930;2023-07-08T08:26:11;100461.38;;;25.28;79.29
33625;BME280;19962;47.820;1.930;2023-07-08T08:28:37;100462.22;;;25.29;79.42
33625;BME280;19962;47.820;1.930;2023-07-08T08:31:03;100462.06;;;25.34;79.23
33625;BME280;19962;47.820;1.930;2023-07-08T08:33:29;100458.94;;;25.35;79.23
33625;BME280;19962;47.820;1.930;2023-07-08T08:35:55;100463.38;;;25.36;78.50
33625;BME280;19962;47.820;1.930;2023-07-08T08:38:21;100463.56;;;25.40;77.98
33625;BME280;19962;47.820;1.930;2023-07-08T08:40:48;100468.03;;;25.41;76.88
33625;BME280;19962;47.820;1.930;2023-07-08T08:43:18;100479.25;;;25.41;76.80
33625;BME280;19962;47.820;1.930;2023-07-08T08:48:20;100463.88;;;25.47;76.63
33625;BME280;19962;47.820;1.930;2023-07-08T08:53:36;100462.22;;;25.54;76.30
33625;BME280;19962;47.820;1.930;2023-07-08T08:56:13;100461.72;;;25.61;76.01
33625;BME280;19962;47.820;1.930;2023-07-08T08:58:44;100466.03;;;25.67;75.53
33625;BME280;19962;47.820;1.930;2023-07-08T09:01:15;100464.69;;;25.73;75.39
33625;BME280;19962;47.820;1.930;2023-07-08T09:04:00;100468.16;;;25.78;74.81
33625;BME280;19962;47.820;1.930;2023-07-08T09:06:30;100467.47;;;25.81;74.29
33625;BME280;19962;47.820;1.930;2023-07-08T09:09:09;100464.34;;;25.83;74.30
33625;BME280;19962;47.820;1.930;2023-07-08T09:14:26;100454.28;;;25.82;73.67
33625;BME280;19962;47.820;1.930;2023-07-08T09:19:41;100459.22;;;25.85;71.80
33625;BME280;19962;47.820;1.930;2023-07-08T09:22:46;100454.75;;;25.84;70.74
33625;BME280;19962;47.820;1.930;2023-07-08T09:25:30;100461.88;;;25.90;71.30
33625;BME280;19962;47.820;1.930;2023-07-08T09:27:58;100469.31;;;25.94;71.20
33625;BME280;19962;47.820;1.930;2023-07-08T09:30:25;100463.88;;;25.98;70.73
33625;BME280;19962;47.820;1.930;2023-07-08T09:32:52;100461.53;;;26.00;70.66
33625;BME280;19962;47.820;1.930;2023-07-08T09:35:27;100458.06;;;26.03;70.56
33625;BME280;19962;47.820;1.930;2023-07-08T09:37:54;100459.72;;;26.04;69.33
33625;BME280;19962;47.820;1.930;2023-07-08T09:40:28;100456.72;;;26.09;68.80
33625;BME280;19962;47.820;1.930;2023-07-08T09:43:03;100448.09;;;26.14;68.57
33625;BME280;19962;47.820;1.930;2023-07-08T09:45:44;100455.69;;;26.22;68.11
33625;BME280;19962;47.820;1.930;2023-07-08T09:48:21;100445.03;;;26.36;67.90
33625;BME280;19962;47.820;1.930;2023-07-08T09:50:49;100442.72;;;26.38;67.73
33625;BME280;19962;47.820;1.930;2023-07-08T09:53:16;100454.00;;;26.38;67.65
33625;BME280;19962;47.820;1.930;2023-07-08T09:55:43;100451.66;;;26.40;67.87
33625;BME280;19962;47.820;1.930;2023-07-08T09:58:25;100447.84;;;26.44;67.96
33625;BME280;19962;47.820;1.930;2023-07-08T10:00:59;100445.97;;;26.48;67.45
33625;BME280;19962;47.820;1.930;2023-07-08T10:03:28;100449.09;;;26.55;67.04
33625;BME280;19962;47.820;1.930;2023-07-08T10:05:58;100448.94;;;26.60;66.28
33625;BME280;19962;47.820;1.930;2023-07-08T10:08:36;100443.94;;;26.66;65.35
33625;BME280;19962;47.820;1.930;2023-07-08T10:13:54;100435.63;;;26.69;63.85
33625;BME280;19962;47.820;1.930;2023-07-08T10:16:30;100433.94;;;26.77;64.52
33625;BME280;19962;47.820;1.930;2023-07-08T10:18:57;100428.47;;;26.80;64.98
33625;BME280;19962;47.820;1.930;2023-07-08T10:27:12;100430.97;;;27.02;65.29
33625;BME280;19962;47.820;1.930;2023-07-08T10:30:14;100423.41;;;27.15;64.83
33625;BME280;19962;47.820;1.930;2023-07-08T10:47:33;100418.78;;;27.39;62.07
33625;BME280;19962;47.820;1.930;2023-07-08T10:50:25;100411.06;;;27.48;62.00
33625;BME280;19962;47.820;1.930;2023-07-08T10:55:59;100416.81;;;27.52;62.12
33625;BME280;19962;47.820;1.930;2023-07-08T10:58:52;100418.63;;;27.56;60.42
33625;BME280;19962;47.820;1.930;2023-07-08T11:07:08;100435.38;;;27.73;58.67
33625;BME280;19962;47.820;1.930;2023-07-08T11:12:26;100430.84;;;27.81;58.61
33625;BME280;19962;47.820;1.930;2023-07-08T11:15:20;100420.03;;;27.83;58.72
33625;BME280;19962;47.820;1.930;2023-07-08T11:17:50;100432.66;;;27.97;59.03
33625;BME280;19962;47.820;1.930;2023-07-08T11:20:35;100423.28;;;28.05;57.78
33625;BME280;19962;47.820;1.930;2023-07-08T11:25:38;100421.06;;;28.23;57.68
33625;BME280;19962;47.820;1.930;2023-07-08T11:28:08;100423.53;;;28.24;56.89
33625;BME280;19962;47.820;1.930;2023-07-08T11:30:39;100425.19;;;28.25;56.55
33625;BME280;19962;47.820;1.930;2023-07-08T11:33:11;100432.47;;;28.26;55.84
33625;BME280;19962;47.820;1.930;2023-07-08T11:35:42;100413.06;;;28.37;56.02
33625;BME280;19962;47.820;1.930;2023-07-08T11:38:20;100420.31;;;28.58;56.03
33625;BME280;19962;47.820;1.930;2023-07-08T11:41:00;100422.66;;;28.68;56.42
33625;BME280;19962;47.820;1.930;2023-07-08T11:46:11;100426.31;;;28.57;55.61
33625;BME280;19962;47.820;1.930;2023-07-08T11:48:45;100423.34;;;28.53;55.00
33625;BME280;19962;47.820;1.930;2023-07-08T11:51:24;100423.97;;;28.47;54.83
33625;BME280;19962;47.820;1.930;2023-07-08T11:54:30;100417.13;;;28.48;53.97
33625;BME280;19962;47.820;1.930;2023-07-08T11:59:25;100404.06;;;28.67;54.56
33625;BME280;19962;47.820;1.930;2023-07-08T12:02:12;100393.13;;;28.66;54.00
33625;BME280;19962;47.820;1.930;2023-07-08T12:05:04;100399.72;;;28.70;53.62
33625;BME280;19962;47.820;1.930;2023-07-08T12:07:38;100402.75;;;28.77;53.79
33625;BME280;19962;47.820;1.930;2023-07-08T12:10:24;100386.75;;;28.81;53.85
33625;BME280;19962;47.820;1.930;2023-07-08T12:12:52;100379.56;;;28.83;53.49
33625;BME280;19962;47.820;1.930;2023-07-08T12:15:25;100384.16;;;28.88;53.84
33625;BME280;19962;47.820;1.930;2023-07-08T12:18:01;100389.00;;;28.99;54.02
33625;BME280;19962;47.820;1.930;2023-07-08T12:20:31;100386.00;;;29.20;53.83
33625;BME280;19962;47.820;1.930;2023-07-08T12:22:59;100378.78;;;29.34;53.16
33625;BME280;19962;47.820;1.930;2023-07-08T12:25:31;100379.78;;;29.42;52.10
33625;BME280;19962;47.820;1.930;2023-07-08T12:27:58;100378.88;;;29.38;52.01
33625;BME280;19962;47.820;1.930;2023-07-08T12:30:27;100376.75;;;29.35;51.94
33625;BME280;19962;47.820;1.930;2023-07-08T12:32:54;100376.75;;;29.35;51.60
33625;BME280;19962;47.820;1.930;2023-07-08T12:35:40;100391.81;;;29.39;50.58
33625;BME280;19962;47.820;1.930;2023-07-08T12:40:41;100386.50;;;29.37;51.48
33625;BME280;19962;47.820;1.930;2023-07-08T12:43:10;100395.91;;;29.41;50.79
33625;BME280;19962;47.820;1.930;2023-07-08T12:45:36;100382.13;;;29.40;50.77
33625;BME280;19962;47.820;1.930;2023-07-08T12:48:03;100387.41;;;29.53;50.51
33625;BME280;19962;47.820;1.930;2023-07-08T12:50:29;100380.22;;;29.56;50.05
33625;BME280;19962;47.820;1.930;2023-07-08T12:52:56;100385.41;;;29.54;49.54
33625;BME280;19962;47.820;1.930;2023-07-08T12:55:23;100361.53;;;29.67;48.83
33625;BME280;19962;47.820;1.930;2023-07-08T12:57:52;100368.59;;;29.73;48.05
33625;BME280;19962;47.820;1.930;2023-07-08T13:00:26;100365.31;;;29.71;48.15
33625;BME280;19962;47.820;1.930;2023-07-08T13:03:03;100361.81;;;29.62;48.82
33625;BME280;19962;47.820;1.930;2023-07-08T13:05:31;100358.38;;;29.68;49.30
33625;BME280;19962;47.820;1.930;2023-07-08T13:07:57;100362.19;;;29.76;49.53
33625;BME280;19962;47.820;1.930;2023-07-08T13:10:26;100366.16;;;29.87;49.78
33625;BME280;19962;47.820;1.930;2023-07-08T13:12:59;100374.84;;;29.94;49.76
33625;BME280;19962;47.820;1.930;2023-07-08T13:15:35;100373.00;;;29.86;49.22
33625;BME280;19962;47.820;1.930;2023-07-08T13:18:03;100362.13;;;29.72;49.55
33625;BME280;19962;47.820;1.930;2023-07-08T13:20:29;100364.13;;;29.72;49.43
33625;BME280;19962;47.820;1.930;2023-07-08T13:22:59;100356.09;;;29.74;48.72
33625;BME280;19962;47.820;1.930;2023-07-08T13:25:29;100358.22;;;29.77;49.47
33625;BME280;19962;47.820;1.930;2023-07-08T13:27:58;100364.78;;;29.81;49.40
33625;BME280;19962;47.820;1.930;2023-07-08T13:30:26;100355.91;;;29.82;49.27
33625;BME280;19962;47.820;1.930;2023-07-08T13:32:58;100365.72;;;29.85;48.94
33625;BME280;19962;47.820;1.930;2023-07-08T13:35:38;100368.72;;;29.92;49.03
33625;BME280;19962;47.820;1.930;2023-07-08T13:38:06;100369.19;;;29.94;48.78
33625;BME280;19962;47.820;1.930;2023-07-08T13:40:46;100369.19;;;29.94;48.26
33625;BME280;19962;47.820;1.930;2023-07-08T13:43:13;100360.31;;;29.95;48.68
33625;BME280;19962;47.820;1.930;2023-07-08T13:45:44;100360.31;;;29.95;48.00
33625;BME280;19962;47.820;1.930;2023-07-08T13:48:18;100356.78;;;29.98;48.19
33625;BME280;19962;47.820;1.930;2023-07-08T13:51:03;100355.69;;;30.03;46.51
33625;BME280;19962;47.820;1.930;2023-07-08T13:56:22;100341.34;;;30.11;46.39
33625;BME280;19962;47.820;1.930;2023-07-08T13:59:00;100352.50;;;30.20;46.62
33625;BME280;19962;47.820;1.930;2023-07-08T14:01:28;100354.91;;;30.18;46.98
33625;BME280;19962;47.820;1.930;2023-07-08T14:03:55;100348.41;;;30.17;47.08
33625;BME280;19962;47.820;1.930;2023-07-08T14:06:25;100348.13;;;30.22;47.13
33625;BME280;19962;47.820;1.930;2023-07-08T14:08:56;100345.84;;;30.28;46.21